Latest Coastal Weather Observations for Low Rocky Point

IDT60701

Issued at 8:42 am EST Friday 19 August 2022 (issued every 10 minutes, with the page automatically refreshed every 10 minutes)

About coastal observations | Map of coastal stations | Coastal observations for TAS | Marine services | Other Formats
Station Details ID: 097080 Name: LOW ROCKY POINT Lat: -42.98 Lon: 145.50 Height: 34.0 m
Data from the previous 72 hours. | See also: Recent months at Low Rocky Point
Date/Time
EST
Wind Sea
Height
m
Swell Vis
km
Cloud Weather Temp
°C
Press
MSL
hPa
Rain since
9am
mm
Dir  Spd
kts
Gust
kts
Height
m
Period
s
Dir
19/08:36am WNW 22 34 - - - - - - - 8.9 1005.3 20.6
19/08:30am WNW 20 28 - - - - - - - 9.1 1005.0 20.6
19/08:05am W 17 27 - - - - - - - 8.4 1005.3 20.4
19/08:00am W 19 27 - - - - - - - 8.5 1005.3 20.4
19/07:54am WNW 16 26 - - - - - - - 9.8 1005.3 20.4
19/07:30am WNW 16 21 - - - - - - - 9.5 1005.2 20.4
19/07:00am NW 20 27 - - - - - - - 9.5 1004.9 20.4
19/06:30am NW 21 27 - - - - - - - 9.1 1004.7 20.4
19/06:24am WNW 22 28 - - - - - - - 9.3 1004.6 20.4
19/06:00am W 22 29 - - - - - - - 8.4 1004.6 20.4
19/05:30am W 22 26 - - - - - - - 9.1 1004.4 20.4
19/05:00am WNW 28 33 - - - - - - - 9.5 1003.9 20.4
19/04:30am WNW 27 32 - - - - - - - 9.6 1003.4 20.4
19/04:00am WNW 22 29 - - - - - - - 8.5 1003.4 20.4
19/03:53am WNW 27 37 - - - - - - - 7.6 1003.3 20.4
19/03:30am WNW 25 29 - - - - - - - 9.2 1003.0 20.2
19/03:00am WNW 21 25 - - - - - - Recent precip. 8.5 1003.0 20.2
19/02:37am WNW 23 30 - - - - - - - 8.2 1003.0 20.0
19/02:30am NW 20 26 - - - - - - - 8.6 1002.8 20.0
19/02:00am WNW 27 40 - - - - - - - 8.5 1002.4 19.8
19/01:57am WNW 25 36 - - - - - - - 9.7 1002.3 19.8
19/01:30am WNW 25 31 - - - - - - - 10.2 1002.1 19.8
19/01:00am WNW 21 26 - - - - - - - 9.6 1002.0 19.8
19/12:30am NW 19 23 - - - - - - - 9.5 1002.0 19.8
19/12:00am WNW 22 28 - - - - - - - 9.9 1001.6 19.8
 
Date/Time
EST
Wind Sea
Height
m
Swell Vis
km
Cloud Weather Temp
°C
Press
MSL
hPa
Rain since
9am
mm
Dir  Spd
kts
Gust
kts
Height
m
Period
s
Dir
18/11:30pm WNW 23 27 - - - - - - - 10.0 1001.5 19.8
18/11:00pm WNW 22 29 - - - - - - - 9.7 1001.4 19.8
18/10:30pm WNW 23 26 - - - - - - - 9.3 1001.3 19.8
18/10:03pm WNW 25 38 - - - - - - - 9.8 1000.9 19.6
18/10:00pm WNW 24 28 - - - - - - - 9.8 1000.9 19.6
18/09:45pm WNW 25 31 - - - - - - - 10.0 1000.8 19.6
18/09:30pm WNW 24 30 - - - - - - - 10.5 1000.7 19.6
18/09:00pm WNW 27 32 - - - - - - - 10.3 1000.4 19.6
18/08:30pm WNW 29 35 - - - - - - - 10.1 999.9 19.6
18/08:00pm WNW 27 33 - - - - - - - 10.4 999.7 19.6
18/07:30pm NW 22 27 - - - - - - - 9.5 999.6 19.6
18/07:19pm WNW 26 36 - - - - - - - 9.0 999.5 19.6
18/07:00pm WNW 25 31 - - - - - - - 10.0 999.0 19.6
18/06:30pm WNW 24 30 - - - - - - - 9.3 998.6 19.6
18/06:07pm WNW 27 45 - - - - - - - 9.9 998.3 19.2
18/06:00pm NW 28 34 - - - - - - - 10.1 998.1 19.2
18/05:30pm WNW 24 32 - - - - - - - 9.6 997.8 19.2
18/05:00pm WNW 28 36 - - - - - - - 10.1 997.5 19.2
18/04:30pm WNW 29 36 - - - - - - - 9.8 996.9 19.2
18/04:00pm WNW 30 37 - - - - - - - 9.7 996.3 19.2
18/03:30pm WNW 38 45 - - - - - - - 9.9 995.0 19.2
18/03:00pm WNW 41 52 - - - - - - Recent precip. 9.9 993.0 19.2
18/02:30pm NW 41 58 - - - - - - - 10.7 991.3 19.2
18/02:21pm NW 41 53 - - - - - - - 11.3 990.9 19.2
18/02:17pm NW 41 53 - - - - - - - 11.2 990.6 19.2
18/02:00pm NNW 33 46 - - - - - - - 11.0 990.6 19.0
18/01:30pm NNW 34 47 - - - - - - - 10.6 991.4 18.0
18/01:20pm NNW 33 48 - - - - - - - 10.7 991.4 17.0
18/01:16pm NNW 28 45 - - - - - - - 10.7 991.1 16.2
18/01:00pm NNW 26 40 - - - - - - - 11.8 991.4 15.4
18/12:44pm NNW 28 38 - - - - - - - 12.6 991.5 15.2
18/12:30pm NNW 28 37 - - - - - - - 12.8 991.7 15.2
18/12:00pm NNW 31 39 - - - - - - Recent precip. 12.6 992.2 15.2
18/11:30am NNW 30 41 - - - - - - - 12.3 992.5 15.2
18/11:02am NNW 31 41 - - - - - - - 12.2 992.8 14.8
18/11:00am NW 33 41 - - - - - - - 12.1 992.8 14.6
18/10:31am NW 30 41 - - - - - - - 11.7 993.2 13.0
18/10:30am NW 29 36 - - - - - - - 11.4 993.3 12.8
18/10:19am NNW 30 36 - - - - - - - 10.4 993.6 8.4
18/10:00am NNW 22 33 - - - - - - - 11.6 993.8 3.4
18/09:33am NNW 18 28 - - - - - - - 11.6 994.2 1.6
18/09:30am NNW 19 28 - - - - - - - 11.6 994.3 1.2
18/09:06am NNW 18 28 - - - - - - - 11.5 994.9 0.4
18/09:00am NNW 20 29 - - - - - - Rain 11.5 995.1 19.8
18/08:51am NNW 19 29 - - - - - - - 11.4 995.2 19.0
18/08:30am NNW 15 22 - - - - - - - 11.3 995.7 17.0
18/08:04am NNW 19 29 - - - - - - - 11.5 995.8 15.4
18/08:00am NNW 21 29 - - - - - - - 11.6 995.9 15.4
18/07:47am NNW 22 32 - - - - - - - 11.6 995.8 15.2
18/07:30am NNW 24 31 - - - - - - - 11.8 996.3 14.0
18/07:00am NNW 29 39 - - - - - - - 11.9 996.4 12.4
18/06:30am NNW 25 37 - - - - - - - 11.8 996.7 12.0
18/06:14am NNW 26 37 - - - - - - - 11.7 996.8 11.8
18/06:00am NNW 25 34 - - - - - - Rain 11.8 997.0 11.4
18/05:36am NNW 23 33 - - - - - - - 11.6 997.5 10.8
18/05:30am NNW 23 31 - - - - - - - 11.5 997.6 10.6
18/05:08am NNW 23 34 - - - - - - - 11.5 997.7 9.2
18/05:00am NNW 21 29 - - - - - - - 11.4 997.9 8.6
18/04:38am NNW 18 28 - - - - - - - 11.2 998.0 7.0
18/04:30am NNW 21 28 - - - - - - - 11.1 998.2 6.6
18/04:11am NNW 23 33 - - - - - - - 11.3 998.3 5.4
18/04:00am NNW 22 31 - - - - - - - 11.1 998.3 5.0
18/03:30am NNW 23 36 - - - - - - - 11.0 998.7 4.0
18/03:00am NNW 23 34 - - - - - - Recent precip. 10.9 998.8 3.4
18/02:37am NNW 23 35 - - - - - - - 11.0 999.3 3.2
18/02:30am NNW 22 30 - - - - - - - 10.9 999.3 3.2
18/02:00am N 22 32 - - - - - - - 10.8 999.9 2.8
18/01:32am N 24 35 - - - - - - - 10.7 1000.1 2.6
18/01:30am NNW 23 32 - - - - - - - 10.7 1000.1 2.6
18/01:01am NNW 23 34 - - - - - - - 10.6 1000.9 1.8
18/01:00am NNW 23 32 - - - - - - - 10.6 1001.0 1.8
18/12:30am NNW 25 36 - - - - - - - 10.8 1001.3 1.8
18/12:01am NNW 25 36 - - - - - - - 10.6 1001.3 1.6
18/12:00am NNW 25 34 - - - - - - Rain 10.6 1001.3 1.6
 
Date/Time
EST
Wind Sea
Height
m
Swell Vis
km
Cloud Weather Temp
°C
Press
MSL
hPa
Rain since
9am
mm
Dir  Spd
kts
Gust
kts
Height
m
Period
s
Dir
17/11:30pm NNW 23 35 - - - - - - - 10.6 1001.9 1.2
17/11:00pm NNW 23 33 - - - - - - - 10.4 1002.3 1.2
17/10:30pm NNW 24 36 - - - - - - - 10.5 1002.9 1.0
17/10:00pm NNW 23 36 - - - - - - - 10.5 1003.3 0.4
17/09:33pm NNW 25 35 - - - - - - - 11.2 1003.7 0.0
17/09:30pm NNW 26 35 - - - - - - - 11.2 1003.7 0.0
17/09:05pm NNW 22 33 - - - - - - - 11.2 1003.8 0.0
17/09:00pm NNW 22 31 - - - - - - - 11.2 1003.8 0.0
17/08:30pm NNW 25 42 - - - - - - - 11.7 1003.8 0.0
17/08:00pm NNW 25 37 - - - - - - - 11.9 1004.0 0.0
17/07:30pm NNW 25 38 - - - - - - - 11.9 1004.0 0.0
17/07:00pm NNW 25 37 - - - - - - - 11.8 1004.2 0.0
17/06:30pm N 22 32 - - - - - - - 11.5 1003.5 0.0
17/06:00pm N 20 33 - - - - - - - 11.2 1005.1 0.0
17/05:30pm NNW 20 30 - - - - - - - 11.8 1005.7 0.0
17/05:03pm NNW 18 28 - - - - - - - 12.6 1006.3 0.0
17/05:00pm NNW 19 28 - - - - - - - 12.7 1006.3 0.0
17/04:30pm NNW 24 34 - - - - - - - 12.8 1006.4 0.0
17/04:28pm NNW 23 34 - - - - - - - 12.8 1006.5 0.0
17/04:00pm NNW 23 27 - - - - - - - 12.5 1006.7 0.0
17/03:30pm NNW 19 25 - - - - - - - 12.3 1006.8 0.0
17/03:00pm NNW 12 16 - - - - - - - 12.5 1007.6 0.0
17/02:39pm NNW 20 30 - - - - - - - 12.0 1007.9 0.0
17/02:30pm NW 25 31 - - - - - - - 12.0 1008.4 0.0
17/02:00pm NW 23 30 - - - - - - - 12.3 1008.5 0.0
17/01:30pm NNW 15 20 - - - - - - - 12.1 1008.8 0.0
17/01:00pm NNW 20 26 - - - - - - - 12.4 1009.8 0.0
17/12:30pm NNW 12 17 - - - - - - - 12.5 1011.0 0.0
17/12:00pm N 13 19 - - - - - - - 11.2 1011.4 0.0
17/11:30am NNW 13 20 - - - - - - - 10.6 1012.4 0.0
17/11:00am N 12 18 - - - - - - - 10.1 1013.3 0.0
17/10:30am N 12 17 - - - - - - - 9.4 1013.6 0.0
17/10:00am N 11 16 - - - - - - - 9.1 1014.1 0.0
17/09:30am N 11 15 - - - - - - - 9.0 1014.3 0.0
17/09:00am N 12 16 - - - - - - - 8.8 1014.6 0.6
17/08:30am N 13 17 - - - - - - - 8.3 1014.8 0.6
17/08:00am N 12 16 - - - - - - - 7.9 1014.3 0.6
17/07:30am N 11 14 - - - - - - - 7.8 1014.5 0.6
17/07:00am NNE 9 12 - - - - - - - 7.5 1014.6 0.6
17/06:30am N 9 11 - - - - - - - 7.7 1014.9 0.6
17/06:00am N 9 12 - - - - - - - 7.6 1015.0 0.6
17/05:30am NNE 9 13 - - - - - - - 7.7 1014.8 0.6
17/05:00am NNE 8 10 - - - - - - - 7.8 1015.1 0.6
17/04:30am N 9 11 - - - - - - - 8.0 1014.9 0.6
17/04:00am N 9 12 - - - - - - - 8.1 1015.2 0.6
17/03:30am N 9 11 - - - - - - - 8.1 1015.2 0.6
17/03:00am NNE 7 10 - - - - - - - 8.1 1014.9 0.6
17/02:30am N 7 8 - - - - - - - 8.2 1015.2 0.6
17/02:00am N 8 10 - - - - - - - 8.3 1015.3 0.6
17/01:30am N 8 9 - - - - - - - 8.4 1015.5 0.6
17/01:00am N 8 9 - - - - - - - 8.5 1015.3 0.6
17/12:30am N 7 8 - - - - - - - 8.6 1015.3 0.6
17/12:00am N 7 8 - - - - - - - 8.7 1015.6 0.6
 
Date/Time
EST
Wind Sea
Height
m
Swell Vis
km
Cloud Weather Temp
°C
Press
MSL
hPa
Rain since
9am
mm
Dir  Spd
kts
Gust
kts
Height
m
Period
s
Dir
16/11:30pm NW 6 9 - - - - - - - 8.8 1015.7 0.6
16/11:00pm N 4 7 - - - - - - - 8.9 1015.9 0.6
16/10:30pm W 4 6 - - - - - - - 8.9 1015.9 0.6
16/10:00pm WSW 5 6 - - - - - - - 9.0 1016.1 0.6
16/09:30pm SW 6 8 - - - - - - - 9.1 1016.1 0.6
16/09:00pm SW 6 8 - - - - - - Recent precip. 8.9 1015.8 0.6
16/08:30pm SW 6 9 - - - - - - - 8.9 1015.6 0.6
16/08:00pm WSW 9 13 - - - - - - - 9.2 1015.8 0.4
16/07:30pm SW 11 15 - - - - - - - 9.0 1016.0 0.4
16/07:00pm SW 11 15 - - - - - - - 9.4 1015.6 0.4
16/06:30pm WSW 12 16 - - - - - - - 9.7 1015.3 0.4
16/06:00pm SSW 11 14 - - - - - - Recent precip. 9.8 1014.1 0.4
16/05:30pm SSW 9 13 - - - - - - - 10.0 1013.0 0.4
16/05:00pm S 10 14 - - - - - - - 10.1 1012.1 0.2
16/04:30pm S 11 14 - - - - - - - 10.4 1011.7 0.2
16/04:00pm SSW 13 18 - - - - - - - 10.7 1011.8 0.2
16/03:30pm SSW 13 18 - - - - - - - 10.7 1011.5 0.2
16/03:00pm SSW 14 20 - - - - - - - 10.7 1011.4 0.2
16/02:30pm SSW 13 18 - - - - - - - 11.5 1011.2 0.2
16/02:00pm SSW 13 19 - - - - - - - 11.8 1010.8 0.2
16/01:30pm SSW 14 19 - - - - - - - 12.3 1010.5 0.2
16/01:00pm SW 14 21 - - - - - - - 12.1 1010.3 0.2
16/12:30pm SW 15 20 - - - - - - - 12.3 1010.1 0.2
16/12:00pm SW 15 21 - - - - - - - 11.6 1010.1 0.2
16/11:30am SW 15 20 - - - - - - - 11.5 1009.7 0.2
16/11:00am SSW 13 19 - - - - - - - 11.8 1008.9 0.2
16/10:30am SSW 14 21 - - - - - - - 11.0 1008.8 0.2
16/10:00am SSW 14 20 - - - - - - - 11.2 1008.5 0.0
16/09:30am SSW 10 15 - - - - - - - 11.7 1008.1 0.0
16/09:00am S 13 17 - - - - - - Recent precip. 11.4 1007.1 4.2

Other formats

Comma delimited format used in spreadsheet applications
http://www.bom.gov.au/fwo/IDT60701/IDT60701.95961.axf

JavaScript Object Notation format (JSON) in row-major order
http://www.bom.gov.au/fwo/IDT60701/IDT60701.95961.json

Data quality

Most of these data are generated automatically and are frequently updated. Quality checks on data are not normally performed. It is possible for incorrect values to appear. Refer to information at About Latest Weather Observations and please check the disclaimer before using these data.